Historical Weather Data
Okotoks
Hwy 2A and Milligan Dr

Date
ET inches
Rain inches
Temperature °C
Humidity
Avg
Wind kmh
Avg
Solar Wm2
Avg
High
Avg
Low
05/01/2021 0.13 0.00 15.2 6.1 -2.0 59 14.2 229
05/02/2021 0.11 0.00 11.0 4.9 -2.3 66 13.8 212
05/03/2021 0.13 0.00 14.7 5.9 -4.2 65 6.9 256
05/04/2021 0.10 0.12 13.6 5.5 -0.8 73 10.2 190
05/05/2021 0.14 0.00 15.2 6.8 -2.2 57 7.1 268
05/06/2021 0.20 0.00 19.1 10.6 0.1 45 16.8 255
05/07/2021 0.12 0.00 16.0 10.0 5.7 45 11.7 132
05/08/2021 0.04 0.37 5.9 2.2 0.0 91 22.1 103
05/09/2021 0.02 0.26 1.5 0.5 -0.2 98 7.8 37
05/10/2021 0.15 0.00 14.6 5.1 -4.1 67 5.2 316
05/11/2021 0.09 0.00 13.1 6.3 -0.2 68 10.7 171
05/12/2021 0.18 0.00 18.4 9.5 -1.8 50 7.4 286
05/13/2021 0.16 0.00 17.5 10.8 4.6 53 12.0 215
05/14/2021 0.18 0.00 20.6 11.5 0.9 53 6.1 306
05/15/2021 0.20 0.00 22.9 13.0 0.5 45 6.4 323
05/16/2021 0.24 0.00 25.0 15.7 5.7 39 9.3 313
05/17/2021 0.23 0.00 26.0 17.2 8.0 38 12.3 243
05/18/2021 0.22 0.00 16.3 9.2 -0.5 48 17.3 349
05/19/2021 0.11 0.00 10.6 3.0 -4.7 62 11.4 239
05/20/2021 0.04 0.04 0.2 -0.7 -1.7 90 8.8 115
05/21/2021 0.10 0.01 10.3 3.4 -1.1 68 4.7 210
05/22/2021 0.13 0.00 13.8 6.0 -2.8 62 8.3 225
05/23/2021 0.03 0.65 6.4 2.9 -0.6 92 8.1 74
05/24/2021 0.06 0.37 9.4 5.5 0.0 90 16.9 114
05/25/2021 0.07 0.09 12.7 8.1 5.1 83 7.9 135
05/26/2021 0.14 0.06 18.4 10.4 4.2 77 13.5 255
05/27/2021 0.23 0.00 21.8 12.8 1.7 51 15.9 287
05/28/2021 0.20 0.00 17.4 10.1 1.5 46 13.5 294
05/29/2021 0.18 0.00 19.4 10.2 -1.8 45 6.1 306
05/30/2021 0.24 0.00 22.5 13.3 1.6 40 8.9 349
05/31/2021 0.24 0.00 24.7 16.5 5.1 40 8.1 350